createdAt,value
2019-03-21T00:01:48.329Z,4.17
2019-03-21T00:04:20.887Z,3.70
2019-03-21T00:06:53.670Z,4.10
2019-03-21T00:09:26.287Z,4.00
2019-03-21T00:12:07.515Z,4.10
2019-03-21T00:15:11.431Z,4.35
2019-03-21T00:17:48.513Z,5.50
2019-03-21T00:20:22.220Z,8.93
2019-03-21T00:22:54.720Z,4.47
2019-03-21T00:25:28.708Z,4.70
2019-03-21T00:28:01.509Z,4.90
2019-03-21T00:30:34.807Z,3.90
2019-03-21T00:33:07.305Z,4.23
2019-03-21T00:35:40.593Z,4.30
2019-03-21T00:38:13.215Z,4.33
2019-03-21T00:40:46.663Z,4.77
2019-03-21T00:43:19.476Z,4.40
2019-03-21T00:45:52.239Z,5.20
2019-03-21T00:48:24.781Z,4.50
2019-03-21T00:50:57.565Z,7.77
2019-03-21T00:53:29.864Z,5.00
2019-03-21T00:56:02.280Z,4.97
2019-03-21T00:58:34.827Z,4.62
2019-03-21T01:01:07.760Z,5.63
2019-03-21T01:03:40.458Z,5.30
2019-03-21T01:06:12.907Z,4.87
2019-03-21T01:08:45.569Z,5.43
2019-03-21T01:11:18.176Z,5.30
2019-03-21T01:13:50.788Z,5.27
2019-03-21T01:16:23.380Z,4.67
2019-03-21T01:18:55.990Z,4.63
2019-03-21T01:21:28.471Z,5.13
2019-03-21T01:24:05.306Z,5.43
2019-03-21T01:26:38.067Z,4.83
2019-03-21T01:29:10.701Z,4.77
2019-03-21T01:31:43.139Z,5.23
2019-03-21T01:34:16.043Z,4.97
2019-03-21T01:36:48.591Z,6.30
2019-03-21T01:39:20.707Z,5.17
2019-03-21T01:41:53.004Z,6.03
2019-03-21T01:44:25.641Z,6.00
2019-03-21T01:46:58.064Z,5.63
2019-03-21T01:49:30.594Z,5.10
2019-03-21T01:52:03.115Z,4.67
2019-03-21T01:54:35.728Z,5.70
2019-03-21T01:57:08.204Z,5.15
2019-03-21T01:59:40.763Z,5.47
2019-03-21T02:02:13.451Z,4.90
2019-03-21T02:04:46.318Z,5.08
2019-03-21T02:07:19.040Z,5.08
2019-03-21T02:09:51.519Z,5.00
2019-03-21T02:12:24.102Z,5.70
2019-03-21T02:14:56.611Z,5.50
2019-03-21T02:17:29.168Z,5.43
2019-03-21T02:20:01.759Z,5.10
2019-03-21T02:22:34.178Z,5.23
2019-03-21T02:25:08.733Z,5.20
2019-03-21T02:27:41.377Z,5.50
2019-03-21T02:30:18.233Z,5.30
2019-03-21T02:32:52.911Z,5.47
2019-03-21T02:35:25.336Z,4.50
2019-03-21T02:37:57.917Z,5.80
2019-03-21T02:40:30.513Z,5.30
2019-03-21T02:43:09.361Z,5.63
2019-03-21T02:45:41.902Z,5.30
2019-03-21T02:48:18.898Z,7.27
2019-03-21T02:50:51.337Z,5.30
2019-03-21T02:53:27.701Z,5.67
2019-03-21T02:55:59.981Z,5.33
2019-03-21T02:58:35.392Z,5.57
2019-03-21T03:01:07.883Z,5.80
2019-03-21T03:03:49.929Z,5.37
2019-03-21T03:06:22.532Z,5.30
2019-03-21T03:09:00.789Z,5.50
2019-03-21T03:11:33.149Z,5.05
2019-03-21T03:14:10.462Z,5.30
2019-03-21T03:16:42.872Z,5.42
2019-03-21T03:19:15.452Z,5.42
2019-03-21T03:21:47.916Z,5.50
2019-03-21T03:24:38.402Z,4.95
2019-03-21T03:27:10.760Z,5.12
2019-03-21T03:29:43.256Z,4.90
2019-03-21T03:32:15.734Z,6.23
2019-03-21T03:34:51.315Z,6.20
2019-03-21T03:37:24.150Z,5.45
2019-03-21T03:40:03.886Z,5.10
2019-03-21T03:42:36.295Z,5.20
2019-03-21T03:45:13.050Z,5.57
2019-03-21T03:47:45.369Z,5.50
2019-03-21T03:50:18.037Z,4.97
2019-03-21T03:52:50.524Z,6.22
2019-03-21T03:55:23.444Z,5.90
2019-03-21T03:57:57.565Z,5.63
2019-03-21T04:00:30.101Z,5.77
2019-03-21T04:03:02.755Z,5.92
2019-03-21T04:05:35.586Z,5.58
2019-03-21T04:08:08.305Z,5.30
2019-03-21T04:10:43.678Z,7.10
2019-03-21T04:13:16.589Z,5.73
2019-03-21T04:15:53.142Z,5.97
2019-03-21T04:18:23.537Z,5.40
2019-03-21T04:20:56.760Z,5.87
2019-03-21T04:23:29.438Z,5.13
2019-03-21T04:26:16.493Z,5.85
2019-03-21T04:28:49.095Z,5.62
2019-03-21T04:31:21.737Z,5.85
2019-03-21T04:33:56.674Z,5.97
2019-03-21T04:36:29.391Z,5.40
2019-03-21T04:39:02.309Z,5.87
2019-03-21T04:41:34.960Z,5.77
2019-03-21T04:44:07.783Z,5.33
2019-03-21T04:46:41.277Z,5.60
2019-03-21T04:49:13.874Z,6.57
2019-03-21T04:51:46.833Z,5.97
2019-03-21T04:54:19.196Z,6.23
2019-03-21T04:56:58.695Z,6.87
2019-03-21T04:59:31.312Z,6.30
2019-03-21T05:02:03.916Z,5.73
2019-03-21T05:04:36.378Z,5.80
2019-03-21T05:07:17.797Z,5.70
2019-03-21T05:09:50.349Z,5.50
2019-03-21T05:12:25.763Z,6.30
2019-03-21T05:14:58.237Z,5.97
2019-03-21T05:17:40.154Z,5.20
2019-03-21T05:20:16.674Z,6.10
2019-03-21T05:22:49.719Z,5.77
2019-03-21T05:25:22.558Z,5.80
2019-03-21T05:28:02.419Z,6.30
2019-03-21T05:30:43.221Z,7.33
2019-03-21T05:33:16.157Z,5.73
2019-03-21T05:35:48.734Z,6.17
2019-03-21T05:38:21.420Z,6.90
2019-03-21T05:40:54.563Z,6.33
2019-03-21T05:43:50.438Z,5.50
2019-03-21T05:46:26.992Z,5.77
2019-03-21T05:48:58.016Z,6.03
2019-03-21T05:51:30.595Z,6.00
2019-03-21T05:54:03.381Z,5.60
2019-03-21T05:56:36.233Z,5.60
2019-03-21T05:59:08.837Z,5.40
2019-03-21T06:01:41.650Z,5.37
2019-03-21T06:04:14.305Z,5.57
2019-03-21T06:06:57.954Z,5.20
2019-03-21T06:09:30.677Z,5.50
2019-03-21T06:12:03.227Z,5.77
2019-03-21T06:14:36.871Z,5.53
2019-03-21T06:17:09.593Z,4.87
2019-03-21T06:20:08.693Z,6.00
2019-03-21T06:23:26.132Z,5.37
2019-03-21T06:26:29.037Z,5.77
2019-03-21T06:29:01.823Z,6.23
2019-03-21T06:31:34.522Z,5.03
2019-03-21T06:34:07.191Z,5.90
2019-03-21T06:36:40.019Z,6.10
2019-03-21T06:39:12.862Z,5.77
2019-03-21T06:41:45.965Z,5.30
2019-03-21T06:44:18.590Z,5.30
2019-03-21T06:46:51.122Z,5.63
2019-03-21T06:49:24.428Z,4.87
2019-03-21T06:51:57.275Z,4.83
2019-03-21T06:54:32.474Z,5.17
2019-03-21T06:57:05.145Z,6.57
2019-03-21T06:59:37.848Z,4.80
2019-03-21T07:02:10.488Z,5.63
2019-03-21T07:04:42.916Z,5.00
2019-03-21T07:07:15.452Z,4.90
2019-03-21T07:09:48.212Z,4.43
2019-03-21T07:12:26.904Z,4.53
2019-03-21T07:14:59.898Z,4.23
2019-03-21T07:17:41.409Z,4.80
2019-03-21T07:20:14.780Z,4.40
2019-03-21T07:22:47.428Z,5.00
2019-03-21T07:25:20.097Z,4.30
2019-03-21T07:27:52.748Z,4.40
2019-03-21T07:30:25.421Z,4.33
2019-03-21T07:32:58.024Z,4.83
2019-03-21T07:35:30.621Z,5.33
2019-03-21T07:38:03.281Z,5.43
2019-03-21T07:40:36.276Z,4.03
2019-03-21T07:43:08.982Z,4.43
2019-03-21T07:45:42.063Z,4.30
2019-03-21T07:48:14.664Z,4.60
2019-03-21T07:50:47.439Z,4.03
2019-03-21T07:53:22.043Z,4.53
2019-03-21T07:55:54.565Z,4.37
2019-03-21T07:58:27.302Z,5.27
2019-03-21T08:01:00.620Z,4.33
2019-03-21T08:03:33.124Z,4.43
2019-03-21T08:06:05.763Z,4.63
2019-03-21T08:08:38.311Z,4.20
2019-03-21T08:11:11.119Z,4.40
2019-03-21T08:13:43.657Z,4.40
2019-03-21T08:16:16.327Z,4.03
2019-03-21T08:18:48.837Z,4.30
2019-03-21T08:21:21.392Z,4.37
2019-03-21T08:23:54.008Z,4.40
2019-03-21T08:26:27.450Z,4.53
2019-03-21T08:29:00.324Z,3.93
2019-03-21T08:31:32.904Z,4.40
2019-03-21T08:34:15.731Z,4.07
2019-03-21T08:36:49.154Z,4.50
2019-03-21T08:39:21.586Z,4.50
2019-03-21T08:41:54.407Z,4.07
2019-03-21T08:44:30.231Z,4.23
2019-03-21T08:47:02.636Z,3.97
2019-03-21T08:49:41.455Z,4.07
2019-03-21T08:52:13.880Z,4.00
2019-03-21T08:54:53.794Z,4.07
2019-03-21T08:57:26.426Z,3.90
2019-03-21T09:00:06.153Z,3.83
2019-03-21T09:02:38.965Z,4.10
2019-03-21T09:05:15.136Z,4.20
2019-03-21T09:07:48.002Z,3.80
2019-03-21T09:10:24.510Z,3.70
2019-03-21T09:12:57.754Z,3.73
2019-03-21T09:15:30.490Z,3.73
2019-03-21T09:18:03.170Z,4.30
2019-03-21T09:20:47.792Z,3.90
2019-03-21T09:23:21.073Z,3.77
2019-03-21T09:25:57.063Z,3.87
2019-03-21T09:28:30.610Z,4.00
2019-03-21T09:31:07.287Z,4.57
2019-03-21T09:33:40.311Z,4.30
2019-03-21T09:36:18.193Z,4.10
2019-03-21T09:38:51.308Z,3.87
2019-03-21T09:41:28.228Z,4.70
2019-03-21T09:44:01.939Z,4.67
2019-03-21T09:46:37.754Z,4.40
2019-03-21T09:49:11.309Z,3.67
2019-03-21T09:51:48.181Z,3.60
2019-03-21T09:54:21.044Z,3.80
2019-03-21T09:56:58.459Z,3.83
2019-03-21T09:59:31.204Z,4.13
2019-03-21T10:02:07.057Z,3.70
2019-03-21T10:04:40.580Z,3.67
2019-03-21T10:07:13.204Z,3.60
2019-03-21T10:09:46.142Z,3.30
2019-03-21T10:12:34.863Z,4.40
2019-03-21T10:15:07.611Z,5.60
2019-03-21T10:17:40.253Z,4.40
2019-03-21T10:20:12.920Z,4.43
2019-03-21T10:22:53.327Z,4.27
2019-03-21T10:25:26.782Z,4.20
2019-03-21T10:27:59.967Z,4.33
2019-03-21T10:30:44.176Z,3.77
2019-03-21T10:33:17.785Z,3.50
2019-03-21T10:35:51.640Z,4.00
2019-03-21T10:38:24.508Z,4.00
2019-03-21T10:40:57.773Z,3.90
2019-03-21T10:43:33.859Z,3.67
2019-03-21T10:46:06.480Z,4.30
2019-03-21T10:48:45.005Z,3.93
2019-03-21T10:51:17.507Z,3.73
2019-03-21T10:53:53.346Z,3.57
2019-03-21T10:56:26.240Z,4.13
2019-03-21T10:58:58.914Z,5.27
2019-03-21T11:01:31.646Z,4.30
2019-03-21T11:04:12.427Z,4.53
2019-03-21T11:06:44.979Z,4.13
2019-03-21T11:09:21.775Z,4.33
2019-03-21T11:11:55.025Z,4.47
2019-03-21T11:14:32.127Z,3.67
2019-03-21T11:17:07.804Z,3.80
2019-03-21T11:19:40.730Z,3.90
2019-03-21T11:22:13.349Z,4.20
2019-03-21T11:24:55.390Z,4.53
2019-03-21T11:27:28.686Z,4.13
2019-03-21T11:30:01.221Z,4.50
2019-03-21T11:32:39.030Z,4.80
2019-03-21T11:35:15.419Z,5.10
2019-03-21T11:37:48.648Z,4.60
2019-03-21T11:40:24.448Z,4.37
2019-03-21T11:42:57.229Z,4.27
2019-03-21T11:45:34.513Z,3.90
2019-03-21T11:48:07.631Z,4.03
2019-03-21T11:50:46.610Z,3.97
2019-03-21T11:53:20.090Z,4.20
2019-03-21T11:55:56.170Z,4.50
2019-03-21T11:58:29.423Z,4.07
2019-03-21T12:01:02.001Z,3.57
2019-03-21T12:03:34.652Z,4.37
2019-03-21T12:06:07.697Z,5.17
2019-03-21T12:08:43.354Z,4.03
2019-03-21T12:11:16.183Z,4.60
2019-03-21T12:13:50.739Z,3.97
2019-03-21T12:16:23.812Z,3.90
2019-03-21T12:18:56.550Z,4.10
2019-03-21T12:21:29.929Z,4.17
2019-03-21T12:24:03.327Z,3.90
2019-03-21T12:26:37.113Z,4.00
2019-03-21T12:29:09.999Z,3.97
2019-03-21T12:31:43.098Z,3.90
2019-03-21T12:34:15.991Z,3.90
2019-03-21T12:36:48.701Z,3.93
2019-03-21T12:39:21.523Z,4.13
2019-03-21T12:41:54.773Z,3.30
2019-03-21T12:44:28.456Z,3.87
2019-03-21T12:47:01.668Z,4.00
2019-03-21T12:49:34.342Z,4.50
2019-03-21T12:52:07.197Z,4.50
2019-03-21T12:54:39.720Z,4.07
2019-03-21T12:57:12.372Z,3.70
2019-03-21T12:59:46.440Z,4.00
2019-03-21T13:02:19.116Z,9.30
2019-03-21T13:04:51.577Z,4.57
2019-03-21T13:07:24.129Z,4.10
2019-03-21T13:09:57.515Z,4.17
2019-03-21T13:12:30.699Z,4.50
2019-03-21T13:15:04.352Z,3.97
2019-03-21T13:17:37.738Z,3.80
2019-03-21T13:20:10.444Z,4.10
2019-03-21T13:22:52.564Z,3.70
2019-03-21T13:25:17.753Z,3.67
2019-03-21T13:27:51.735Z,3.80
2019-03-21T13:30:24.621Z,3.73
2019-03-21T13:33:00.445Z,3.43
2019-03-21T13:35:33.726Z,4.30
2019-03-21T13:38:09.547Z,3.83
2019-03-21T13:40:42.826Z,3.70
2019-03-21T13:43:16.002Z,4.07
2019-03-21T13:45:49.492Z,3.43
2019-03-21T13:48:22.025Z,3.57
2019-03-21T13:50:58.137Z,3.47
2019-03-21T13:53:31.505Z,3.53
2019-03-21T13:56:05.542Z,3.63
2019-03-21T13:58:38.007Z,3.40
2019-03-21T14:01:10.672Z,3.63
2019-03-21T14:03:43.368Z,3.73
2019-03-21T14:06:17.355Z,3.70
2019-03-21T14:08:50.249Z,3.87
2019-03-21T14:11:22.904Z,3.60
2019-03-21T14:13:55.776Z,3.70
2019-03-21T14:16:28.443Z,4.00
2019-03-21T14:19:01.221Z,3.43
2019-03-21T14:21:34.331Z,4.10
2019-03-21T14:24:06.948Z,4.00
2019-03-21T14:26:39.608Z,4.10
2019-03-21T14:29:13.063Z,3.93
2019-03-21T14:31:46.145Z,3.30
2019-03-21T14:34:19.475Z,3.67
2019-03-21T14:36:52.398Z,4.17
2019-03-21T14:39:24.953Z,3.53
2019-03-21T14:41:57.701Z,3.60
2019-03-21T14:44:30.179Z,3.30
2019-03-21T14:47:02.998Z,3.83
2019-03-21T14:49:39.589Z,4.60
2019-03-21T14:52:12.687Z,3.73
2019-03-21T14:54:51.713Z,3.47
2019-03-21T14:57:24.664Z,3.97
2019-03-21T15:00:01.072Z,3.90
2019-03-21T15:02:34.472Z,4.10
2019-03-21T15:05:16.990Z,3.53
2019-03-21T15:07:49.583Z,4.07
2019-03-21T15:10:24.248Z,4.37
2019-03-21T15:12:57.452Z,3.90
2019-03-21T15:15:33.283Z,3.97
2019-03-21T15:18:06.173Z,3.80
2019-03-21T15:20:42.812Z,4.43
2019-03-21T15:23:16.255Z,4.03
2019-03-21T15:25:49.267Z,3.67
2019-03-21T15:28:25.631Z,3.70
2019-03-21T15:30:59.625Z,4.10
2019-03-21T15:33:40.314Z,5.07
2019-03-21T15:36:13.243Z,4.17
2019-03-21T15:38:46.811Z,4.20
2019-03-21T15:41:24.381Z,4.47
2019-03-21T15:43:57.440Z,4.23
2019-03-21T15:46:30.431Z,3.87
2019-03-21T15:49:03.239Z,4.30
2019-03-21T15:51:39.893Z,4.13
2019-03-21T15:54:12.519Z,4.57
2019-03-21T15:56:56.523Z,3.77
2019-03-21T15:59:29.482Z,4.27
2019-03-21T16:02:05.525Z,4.80
2019-03-21T16:04:38.249Z,4.53
2019-03-21T16:07:10.929Z,5.47
2019-03-21T16:09:44.010Z,4.17
2019-03-21T16:12:19.980Z,4.20
2019-03-21T16:14:53.333Z,4.03
2019-03-21T16:17:36.556Z,4.47
2019-03-21T16:20:11.697Z,4.50
2019-03-21T16:22:47.720Z,3.93
2019-03-21T16:25:20.386Z,4.43
2019-03-21T16:27:55.677Z,4.20
2019-03-21T16:30:28.275Z,3.80
2019-03-21T16:33:01.109Z,3.80
2019-03-21T16:35:33.822Z,4.57
2019-03-21T16:38:10.715Z,4.07
2019-03-21T16:40:44.327Z,4.10
2019-03-21T16:43:29.266Z,3.60
2019-03-21T16:46:01.923Z,4.07
2019-03-21T16:48:36.389Z,4.10
2019-03-21T16:51:09.329Z,4.10
2019-03-21T16:53:49.676Z,3.90
2019-03-21T16:56:23.395Z,4.07
2019-03-21T16:58:58.690Z,4.43
2019-03-21T17:01:30.526Z,4.10
2019-03-21T17:04:09.551Z,4.33
2019-03-21T17:06:44.243Z,3.80
2019-03-21T17:09:16.921Z,4.03
2019-03-21T17:11:49.777Z,4.17
2019-03-21T17:14:30.152Z,4.30
2019-03-21T17:17:02.801Z,4.57
2019-03-21T17:19:41.929Z,4.10
2019-03-21T17:22:14.690Z,4.50
2019-03-21T17:24:47.395Z,4.80
2019-03-21T17:27:19.938Z,4.53
2019-03-21T17:29:55.330Z,4.40
2019-03-21T17:32:28.558Z,4.63
2019-03-21T17:35:05.729Z,4.20
2019-03-21T17:37:38.863Z,4.03
2019-03-21T17:40:17.536Z,3.93
2019-03-21T17:42:50.299Z,4.50
2019-03-21T17:45:26.236Z,4.97
2019-03-21T17:48:00.165Z,4.40
2019-03-21T17:50:41.861Z,4.17
2019-03-21T17:53:15.241Z,4.10
2019-03-21T17:56:02.388Z,4.70
2019-03-21T17:58:35.812Z,4.27
2019-03-21T18:01:08.640Z,5.10
2019-03-21T18:03:42.745Z,4.20
2019-03-21T18:06:15.483Z,4.83
2019-03-21T18:08:51.338Z,3.90
2019-03-21T18:11:23.900Z,4.73
2019-03-21T18:13:57.417Z,4.07
2019-03-21T18:16:36.335Z,4.70
2019-03-21T18:19:09.345Z,4.50
2019-03-21T18:21:48.167Z,5.13
2019-03-21T18:24:20.665Z,7.10
2019-03-21T18:26:57.056Z,4.50
2019-03-21T18:29:29.922Z,4.67
2019-03-21T18:32:02.932Z,4.63
2019-03-21T18:34:35.929Z,5.10
2019-03-21T18:37:12.523Z,5.13
2019-03-21T18:39:45.537Z,4.23
2019-03-21T18:42:25.236Z,5.73
2019-03-21T18:45:00.187Z,6.63
2019-03-21T18:47:33.348Z,8.63
2019-03-21T18:50:09.135Z,7.27
2019-03-21T18:52:41.900Z,7.63
2019-03-21T18:55:14.880Z,11.33
2019-03-21T18:57:51.644Z,6.57
2019-03-21T19:00:25.144Z,6.90
2019-03-21T19:03:05.119Z,8.17
2019-03-21T19:05:37.934Z,6.20
2019-03-21T19:08:14.243Z,5.73
2019-03-21T19:10:47.669Z,5.80
2019-03-21T19:13:24.926Z,5.20
2019-03-21T19:15:57.651Z,4.30
2019-03-21T19:18:36.649Z,7.10
2019-03-21T19:21:13.679Z,6.00
2019-03-21T19:23:46.945Z,7.70
2019-03-21T19:26:20.046Z,6.67
2019-03-21T19:28:57.360Z,9.87
2019-03-21T19:31:31.313Z,7.67
2019-03-21T19:34:04.413Z,5.60
2019-03-21T19:36:37.375Z,6.27
2019-03-21T19:39:14.570Z,7.90
2019-03-21T19:41:47.720Z,6.20
2019-03-21T19:44:27.974Z,5.73
2019-03-21T19:47:01.513Z,5.83
2019-03-21T19:49:40.531Z,6.50
2019-03-21T19:52:13.457Z,5.70
2019-03-21T19:54:49.354Z,5.70
2019-03-21T19:57:22.653Z,7.07
2019-03-21T19:59:55.811Z,6.90
2019-03-21T20:02:29.024Z,6.20
2019-03-21T20:05:08.903Z,5.50
2019-03-21T20:07:41.969Z,6.10
2019-03-21T20:10:25.722Z,6.83
2019-03-21T20:12:58.541Z,5.27
2019-03-21T20:15:31.779Z,5.80
2019-03-21T20:18:04.816Z,4.90
2019-03-21T20:20:38.430Z,4.83
2019-03-21T20:23:11.426Z,5.90
2019-03-21T20:25:50.616Z,6.10
2019-03-21T20:28:23.912Z,5.00
2019-03-21T20:30:59.851Z,4.83
2019-03-21T20:33:32.759Z,5.23
2019-03-21T20:36:08.892Z,5.33
2019-03-21T20:38:42.579Z,5.60
2019-03-21T20:41:28.842Z,4.90
2019-03-21T20:44:14.402Z,5.00
2019-03-21T20:46:38.333Z,5.20
2019-03-21T20:49:12.403Z,4.50
2019-03-21T20:51:45.570Z,4.80
2019-03-21T20:54:20.212Z,5.40
2019-03-21T20:56:54.211Z,4.60
2019-03-21T20:59:27.765Z,5.13
2019-03-21T21:02:02.879Z,4.80
2019-03-21T21:04:35.509Z,5.03
2019-03-21T21:07:09.203Z,5.50
2019-03-21T21:09:42.222Z,5.13
2019-03-21T21:12:15.403Z,5.70
2019-03-21T21:14:48.097Z,6.60
2019-03-21T21:17:20.695Z,5.27
2019-03-21T21:19:53.539Z,5.30
2019-03-21T21:22:26.240Z,5.17
2019-03-21T21:25:04.955Z,5.17
2019-03-21T21:27:48.665Z,4.67
2019-03-21T21:30:13.789Z,6.00
2019-03-21T21:32:46.461Z,5.40
2019-03-21T21:35:19.258Z,4.57
2019-03-21T21:37:52.363Z,5.77
2019-03-21T21:40:25.436Z,5.07
2019-03-21T21:42:58.154Z,5.13
2019-03-21T21:45:30.745Z,5.70
2019-03-21T21:48:03.537Z,5.50
2019-03-21T21:50:37.893Z,4.87
2019-03-21T21:53:12.541Z,5.33
2019-03-21T21:55:45.802Z,4.90
2019-03-21T21:58:18.660Z,5.00
2019-03-21T22:00:51.361Z,4.70
2019-03-21T22:03:24.380Z,5.33
2019-03-21T22:05:57.072Z,4.90
2019-03-21T22:08:29.492Z,4.63
2019-03-21T22:11:02.082Z,4.57
2019-03-21T22:13:34.660Z,5.03
2019-03-21T22:16:09.933Z,4.67
2019-03-21T22:18:41.602Z,4.67
2019-03-21T22:21:14.005Z,4.87
2019-03-21T22:23:46.753Z,4.53
2019-03-21T22:26:29.211Z,4.40
2019-03-21T22:28:53.626Z,5.50
2019-03-21T22:31:26.119Z,5.13
2019-03-21T22:33:58.758Z,4.63
2019-03-21T22:36:31.276Z,5.20
2019-03-21T22:39:04.016Z,4.50
2019-03-21T22:41:36.769Z,4.80
2019-03-21T22:44:09.258Z,4.70
2019-03-21T22:46:41.704Z,4.47
2019-03-21T22:49:14.312Z,4.83
2019-03-21T22:51:47.294Z,5.00
2019-03-21T22:54:19.862Z,4.90
2019-03-21T22:56:58.130Z,5.00
2019-03-21T22:59:31.324Z,4.80
2019-03-21T23:02:11.829Z,7.70
2019-03-21T23:04:44.603Z,6.80
2019-03-21T23:07:21.579Z,5.20
2019-03-21T23:09:54.310Z,8.70
2019-03-21T23:12:32.982Z,7.57
2019-03-21T23:15:06.567Z,5.50
2019-03-21T23:17:39.385Z,6.27
2019-03-21T23:20:12.486Z,5.73
2019-03-21T23:22:54.132Z,7.53
2019-03-21T23:25:26.777Z,6.43
2019-03-21T23:27:59.358Z,5.90
2019-03-21T23:30:33.505Z,6.57
2019-03-21T23:33:17.201Z,4.87
2019-03-21T23:35:49.749Z,4.50
2019-03-21T23:38:25.210Z,5.03
2019-03-21T23:40:57.791Z,4.90
2019-03-21T23:43:30.389Z,5.53
2019-03-21T23:46:03.183Z,5.30
2019-03-21T23:48:39.689Z,5.13
2019-03-21T23:51:12.212Z,4.83
2019-03-21T23:53:51.583Z,4.70
2019-03-21T23:56:24.106Z,5.37
2019-03-21T23:59:00.329Z,4.73
